Latest Coastal Weather Observations for Holmes Reef

IDQ60701

Issued at 2:42 am EST Wednesday 1 March 2017 (issued every 10 minutes, with the page automatically refreshed every 10 minutes)

About coastal observations | Map of coastal stations | Coastal observations for QLD | Marine services | Other Formats
Station Details ID: 200732 Name: HOLMES REEF Lat: -16.47 Lon: 147.87 Height: 1.9 m
Data from the previous 72 hours. | See also: Recent months at Holmes Reef
Date/Time
EST
Temp
°C
Wind Pressure Rain since
9am
mm
Weather Cloud Vis
km
Sea
Height
m
Swell
Dir  Spd
kts
Gust
kts
hPa Trend Height
m
Period
s
Dir
01/02:30am 28.9 ESE 19 22 1007.3 - - - - - - - - -
01/02:15am 28.8 ESE 18 - 1007.0 - - - - - - - - -
01/02:00am 28.7 SE 18 20 1007.5 - - - - - - - - -
01/01:30am 29.0 ESE 19 23 1008.0 - - - - - - - - -
01/01:15am 28.9 ESE 20 - 1007.9 - - - - - - - - -
01/01:00am 28.9 ESE 20 23 1008.4 - - - - - - - - -
01/12:30am 28.9 ESE 19 22 1008.7 - - - - - - - - -
01/12:15am 28.9 ESE 19 - 1008.8 - - - - - - - - -
01/12:00am 28.8 ESE 20 23 1009.2 - - - - - - - - -
 
Date/Time
EST
Temp
°C
Wind Pressure Rain since
9am
mm
Weather Cloud Vis
km
Sea
Height
m
Swell
Dir  Spd
kts
Gust
kts
hPa Trend Height
m
Period
s
Dir
28/11:30pm 29.0 ESE 21 24 1009.5 - - - - - - - - -
28/11:15pm 29.0 ESE 21 - 1009.3 - - - - - - - - -
28/11:00pm 29.0 ESE 21 24 1009.7 - - - - - - - - -
28/10:30pm 29.1 ESE 21 23 1009.8 - - - - - - - - -
28/10:15pm 29.0 ESE 22 - 1009.5 - - - - - - - - -
28/10:00pm 29.1 ESE 22 25 1009.9 - - - - - - - - -
28/09:30pm 29.1 ESE 21 25 1009.8 - - - - - - - - -
28/09:15pm 29.1 ESE 21 - 1009.5 - - - - - - - - -
28/09:00pm 29.2 ESE 22 25 1009.7 - - - - - - - - -
28/08:30pm 28.9 SE 19 22 1009.1 - - - - - - - - -
28/08:15pm 29.0 SE 19 - 1008.8 - - - - - - - - -
28/08:00pm 28.8 SE 19 21 1009.0 - - - - - - - - -
28/07:30pm 28.9 ESE 21 23 1009.0 - - - - - - - - -
28/07:15pm 29.0 ESE 21 - 1008.6 - - - - - - - - -
28/07:00pm 28.9 SE 21 24 1008.6 - - - - - - - - -
28/06:30pm 29.2 SE 19 23 1008.5 - - - - - - - - -
28/06:15pm 29.2 SE 19 - 1008.1 - - - - - - - - -
28/06:00pm 29.3 SE 20 23 1008.3 - - - - - - - - -
28/05:30pm 29.4 SE 20 23 1007.9 - - - - - - - - -
28/05:15pm 29.3 SE 19 - 1007.5 - - - - - - - - -
28/05:00pm 29.2 SE 18 20 1007.8 - - - - - - - - -
28/04:30pm 29.1 SE 17 19 1007.7 - - - - - - - - -
28/04:15pm 29.0 SE 17 - 1007.3 - - - - - - - - -
28/04:00pm 28.9 SE 15 19 1007.8 - - - - - - - - -
28/03:30pm 29.0 SE 19 22 1007.8 - - - - - - - - -
28/03:15pm 28.8 SE 19 - 1007.4 - - - - - - - - -
28/03:00pm 29.2 SE 17 19 1007.7 - - - - - - - - -
28/02:30pm 29.3 SE 16 19 1007.8 - - - - - - - - -
28/02:15pm 29.2 SE 17 - 1007.7 - - - - - - - - -
28/02:00pm 29.2 SE 17 19 1008.2 - - - - - - - - -
28/01:30pm 29.1 ESE 16 19 1008.5 - - - - - - - - -
28/01:15pm 29.1 ESE 16 - 1008.3 - - - - - - - - -
28/01:00pm 29.1 SE 17 20 1008.7 - - - - - - - - -
28/12:30pm 29.2 ESE 17 19 1009.2 - - - - - - - - -
28/12:15pm 29.2 ESE 18 - 1009.1 - - - - - - - - -
28/12:00pm 29.1 ESE 18 21 1009.5 - - - - - - - - -
28/11:30am 29.1 SE 18 21 1009.7 - - - - - - - - -
28/11:15am 29.2 SE 18 - 1009.5 - - - - - - - - -
28/11:00am 29.1 SE 18 21 1010.0 - - - - - - - - -
28/10:30am 29.1 ESE 19 21 1009.9 - - - - - - - - -
28/10:15am 29.2 ESE 19 - 1009.7 - - - - - - - - -
28/10:00am 29.1 ESE 21 23 1010.0 - - - - - - - - -
28/09:30am 29.1 ESE 17 19 1010.0 - - - - - - - - -
28/09:15am 29.1 SE 17 - 1009.8 - - - - - - - - -
28/09:00am 29.0 ESE 18 22 1009.9 - - - - - - - - -
28/08:30am 29.0 SE 19 22 1009.8 - - - - - - - - -
28/08:15am 28.8 ESE 21 - 1009.2 - - - - - - - - -
28/08:00am 28.9 ESE 21 23 1009.4 - - - - - - - - -
28/07:30am 28.9 ESE 20 24 1009.1 - - - - - - - - -
28/07:15am 29.1 SE 21 - 1008.6 - - - - - - - - -
28/07:00am 29.0 ESE 19 22 1008.8 - - - - - - - - -
28/06:30am 28.7 SE 19 22 1008.8 - - - - - - - - -
28/06:15am 28.6 ESE 18 - 1008.4 - - - - - - - - -
28/06:00am 28.6 SE 19 25 1008.7 - - - - - - - - -
28/05:30am 28.6 SE 19 22 1008.5 - - - - - - - - -
28/05:15am 28.6 SE 18 - 1008.0 - - - - - - - - -
28/05:00am 28.6 SE 18 22 1008.1 - - - - - - - - -
28/04:30am 28.6 SE 17 19 1008.0 - - - - - - - - -
28/04:15am 28.6 SE 17 - 1007.6 - - - - - - - - -
28/04:00am 28.6 SE 19 21 1008.0 - - - - - - - - -
28/03:30am 28.6 SE 18 21 1008.0 - - - - - - - - -
28/03:15am 28.6 SE 18 - 1007.7 - - - - - - - - -
28/03:00am 28.7 SE 17 19 1008.1 - - - - - - - - -
28/02:30am 28.8 SE 19 22 1008.4 - - - - - - - - -
28/02:15am 28.7 SE 17 - 1008.3 - - - - - - - - -
28/02:00am 28.6 SE 18 21 1008.8 - - - - - - - - -
28/01:30am 28.8 SE 19 21 1009.0 - - - - - - - - -
28/01:15am 28.7 SE 20 - 1008.9 - - - - - - - - -
28/01:00am 28.6 SE 18 22 1009.4 - - - - - - - - -
28/12:30am 28.8 SE 18 20 1009.9 - - - - - - - - -
28/12:15am 28.8 SE 18 - 1009.9 - - - - - - - - -
28/12:00am 28.7 SE 18 21 1010.2 - - - - - - - - -
 
Date/Time
EST
Temp
°C
Wind Pressure Rain since
9am
mm
Weather Cloud Vis
km
Sea
Height
m
Swell
Dir  Spd
kts
Gust
kts
hPa Trend Height
m
Period
s
Dir
27/11:30pm 28.9 SE 19 21 1010.5 - - - - - - - - -
27/11:15pm 28.8 SE 18 - 1010.3 - - - - - - - - -
27/11:00pm 28.7 SE 20 22 1010.7 - - - - - - - - -
27/10:35pm 27.4 SE 20 30 1010.8 - - - - - - - - -
27/10:30pm 27.0 SE 21 30 1010.8 - - - - - - - - -
27/10:26pm 28.0 SE 19 30 1010.7 - - - - - - - - -
27/10:15pm 28.7 SE 18 - 1010.2 - - - - - - - - -
27/10:00pm 28.8 SE 18 22 1010.3 - - - - - - - - -
27/09:30pm 27.1 SSE 24 30 1010.3 - - - - - - - - -
27/09:16pm 28.4 SE 20 32 1010.1 - - - - - - - - -
27/09:15pm 28.7 SE 20 - 1009.8 - - - - - - - - -
27/09:00pm 28.8 SE 20 24 1009.9 - - - - - - - - -
27/08:30pm 28.9 SE 20 23 1009.7 - - - - - - - - -
27/08:15pm 28.4 SE 18 - 1009.3 - - - - - - - - -
27/08:00pm 28.9 SE 18 21 1009.6 - - - - - - - - -
27/07:30pm 28.6 SE 15 20 1009.3 - - - - - - - - -
27/07:15pm 28.2 SE 5 - 1008.9 - - - - - - - - -
27/07:00pm 29.0 SE 2 18 1009.2 - - - - - - - - -
27/06:30pm 29.0 SE 17 19 1009.0 - - - - - - - - -
27/06:15pm 29.2 SE 18 - 1008.5 - - - - - - - - -
27/06:00pm 29.3 SE 17 20 1008.6 - - - - - - - - -
27/05:30pm 29.3 SE 18 21 1008.3 - - - - - - - - -
27/05:15pm 29.3 SE 19 - 1007.8 - - - - - - - - -
27/05:00pm 29.2 SE 18 20 1008.1 - - - - - - - - -
27/04:30pm 29.3 SE 17 20 1008.1 - - - - - - - - -
27/04:15pm 29.3 SE 16 - 1007.9 - - - - - - - - -
27/04:00pm 29.3 SE 16 19 1008.1 - - - - - - - - -
27/03:30pm 29.2 SE 17 19 1007.9 - - - - - - - - -
27/03:15pm 29.2 SE 16 - 1007.7 - - - - - - - - -
27/03:00pm 29.3 SE 16 19 1008.1 - - - - - - - - -
27/02:30pm 29.2 SE 15 19 1008.2 - - - - - - - - -
27/02:15pm 29.3 SE 15 - 1008.0 - - - - - - - - -
27/02:00pm 29.3 SE 15 18 1008.3 - - - - - - - - -
27/01:30pm 29.0 ESE 12 15 1008.5 - - - - - - - - -
27/01:15pm 28.8 E 13 - 1008.6 - - - - - - - - -
27/01:00pm 29.3 ESE 16 18 1009.0 - - - - - - - - -
27/12:30pm 29.4 ESE 15 17 1009.4 - - - - - - - - -
27/12:15pm 29.3 ESE 16 - 1009.4 - - - - - - - - -
27/12:00pm 29.3 ESE 16 18 1009.8 - - - - - - - - -
27/11:30am 29.0 ESE 15 18 1010.1 - - - - - - - - -
27/11:15am 27.9 E 7 - 1010.1 - - - - - - - - -
27/11:00am 26.7 SE 3 5 1010.5 - - - - - - - - -
27/10:39am 27.3 ESE 16 23 1011.0 - - - - - - - - -
27/10:30am 28.0 ENE 7 9 1010.7 - - - - - - - - -
27/10:15am 27.8 E 8 - 1010.5 - - - - - - - - -
27/10:00am 27.9 ENE 11 15 1011.0 - - - - - - - - -
27/09:30am 28.0 ESE 14 16 1011.0 - - - - - - - - -
27/09:15am 28.1 ESE 15 - 1010.4 - - - - - - - - -
27/09:00am 27.6 ESE 17 26 1010.8 - - - - - - - - -
27/08:30am 27.3 E 17 19 1010.6 - - - - - - - - -
27/08:15am 27.3 E 19 - 1010.1 - - - - - - - - -
27/08:00am 27.0 E 22 25 1010.4 - - - - - - - - -
27/07:30am 26.8 E 23 26 1010.0 - - - - - - - - -
27/07:15am 26.8 E 26 - 1009.3 - - - - - - - - -
27/07:00am 28.8 ESE 22 25 1009.3 - - - - - - - - -
27/06:30am 28.3 SE 20 23 1009.0 - - - - - - - - -
27/06:15am 28.0 ESE 20 - 1008.4 - - - - - - - - -
27/06:00am 28.2 ESE 23 28 1008.5 - - - - - - - - -
27/05:30am 27.9 ESE 22 25 1008.5 - - - - - - - - -
27/05:15am 27.4 E 24 - 1007.8 - - - - - - - - -
27/05:14am 27.5 E 24 28 1008.2 - - - - - - - - -
27/05:00am 28.6 SE 21 24 1007.9 - - - - - - - - -
27/04:30am 28.1 SE 23 27 1007.8 - - - - - - - - -
27/04:15am 28.0 SE 20 - 1007.4 - - - - - - - - -
27/04:00am 27.3 SE 19 22 1007.8 - - - - - - - - -
27/03:30am 27.1 ESE 16 20 1007.8 - - - - - - - - -
27/03:15am 26.5 ESE 20 - 1007.8 - - - - - - - - -
27/03:00am 26.2 SE 24 28 1008.2 - - - - - - - - -
27/02:57am 26.0 SE 24 28 1008.1 - - - - - - - - -
27/02:30am 25.4 E 22 26 1008.6 - - - - - - - - -
27/02:15am 25.7 E 27 - 1008.3 - - - - - - - - -
27/02:09am 26.7 ESE 17 27 1008.4 - - - - - - - - -
27/02:00am 26.8 ESE 19 24 1008.5 - - - - - - - - -
27/01:52am 27.2 ESE 20 24 1008.5 - - - - - - - - -
27/01:30am 27.5 SSE 17 20 1008.7 - - - - - - - - -
27/01:15am 27.3 SSE 22 - 1008.5 - - - - - - - - -
27/01:00am 27.2 SE 24 28 1008.9 - - - - - - - - -
27/12:55am 27.0 SE 26 28 1008.9 - - - - - - - - -
27/12:45am 27.9 ESE 20 25 1009.2 - - - - - - - - -
27/12:35am 26.9 E 24 28 1009.3 - - - - - - - - -
27/12:30am 28.1 ESE 19 22 1009.2 - - - - - - - - -
27/12:15am 28.0 SSE 17 - 1008.9 - - - - - - - - -
27/12:00am 28.2 SSE 17 20 1009.4 - - - - - - - - -
 
Date/Time
EST
Temp
°C
Wind Pressure Rain since
9am
mm
Weather Cloud Vis
km
Sea
Height
m
Swell
Dir  Spd
kts
Gust
kts
hPa Trend Height
m
Period
s
Dir
26/11:30pm 27.9 SSE 20 23 1009.7 - - - - - - - - -
26/11:15pm 28.6 SE 17 - 1009.5 - - - - - - - - -
26/11:00pm 28.5 SE 19 21 1010.0 - - - - - - - - -
26/10:30pm 28.6 ESE 18 21 1009.7 - - - - - - - - -
26/10:15pm 28.4 ESE 18 - 1009.4 - - - - - - - - -
26/10:00pm 28.2 ESE 19 21 1009.6 - - - - - - - - -
26/09:30pm 28.2 SE 20 23 1009.5 - - - - - - - - -
26/09:15pm 28.1 SE 20 - 1009.1 - - - - - - - - -
26/09:00pm 28.3 ESE 18 21 1009.2 - - - - - - - - -
26/08:51pm 28.1 ESE 20 23 1009.2 - - - - - - - - -
26/08:30pm 27.8 SSE 3 4 1009.0 - - - - - - - - -
26/08:15pm 29.0 SE 3 - 1008.5 - - - - - - - - -
26/08:00pm 29.1 SE 2 3 1008.6 - - - - - - - - -
26/07:30pm 29.0 SE 2 4 1008.2 - - - - - - - - -
26/07:15pm 28.9 SE 2 - 1007.8 - - - - - - - - -
26/07:00pm 28.9 SE 2 3 1008.0 - - - - - - - - -
26/06:30pm 28.8 SE 18 21 1007.7 - - - - - - - - -
26/06:15pm 28.8 SE 16 - 1007.3 - - - - - - - - -
26/06:00pm 28.9 SE 16 19 1007.6 - - - - - - - - -
26/05:30pm 29.1 SE 15 18 1007.5 - - - - - - - - -
26/05:15pm 28.9 SE 15 - 1007.2 - - - - - - - - -
26/05:00pm 28.7 SE 16 18 1007.4 - - - - - - - - -
26/04:30pm 29.0 SE 14 16 1007.2 - - - - - - - - -
26/04:15pm 29.1 SE 14 - 1007.0 - - - - - - - - -
26/04:00pm 29.0 SE 13 15 1007.4 - - - - - - - - -
26/03:30pm 29.1 SE 13 15 1007.4 - - - - - - - - -
26/03:15pm 29.0 SE 14 - 1006.9 - - - - - - - - -
26/03:00pm 29.0 SE 13 15 1007.3 - - - - - - - - -
26/02:30pm 28.9 SE 15 17 1007.4 - - - - - - - - -
26/02:15pm 28.9 SE 14 - 1007.2 - - - - - - - - -
26/02:00pm 28.8 SE 15 17 1007.6 - - - - - - - - -
26/01:30pm 29.0 SE 14 17 1007.9 - - - - - - - - -
26/01:15pm 29.1 SE 14 - 1007.7 - - - - - - - - -
26/01:00pm 28.9 SSE 14 16 1008.2 - - - - - - - - -
26/12:30pm 28.7 SE 14 16 1008.6 - - - - - - - - -
26/12:15pm 28.8 SSE 15 - 1008.4 - - - - - - - - -
26/12:00pm 28.9 SE 16 18 1008.8 - - - - - - - - -
26/11:30am 28.9 SE 15 17 1009.2 - - - - - - - - -
26/11:15am 29.1 SSE 14 - 1008.9 - - - - - - - - -
26/11:00am 29.0 SE 13 16 1009.3 - - - - - - - - -
26/10:30am 29.2 SSE 13 15 1009.5 - - - - - - - - -
26/10:15am 29.2 SSE 12 - 1009.3 - - - - - - - - -
26/10:00am 29.2 SE 13 16 1009.6 - - - - - - - - -
26/09:30am 28.9 SE 13 16 1009.8 - - - - - - - - -
26/09:15am 28.9 SSE 14 - 1009.6 - - - - - - - - -
26/09:00am 29.2 SE 10 14 1009.8 - - - - - - - - -
26/08:30am 29.2 SE 13 16 1009.8 - - - - - - - - -
26/08:15am 29.1 SE 12 - 1009.5 - - - - - - - - -
26/08:00am 29.0 SE 13 15 1009.6 - - - - - - - - -
26/07:30am 28.9 ESE 12 15 1009.2 - - - - - - - - -
26/07:15am 28.8 ESE 13 - 1008.6 - - - - - - - - -
26/07:00am 28.7 ESE 13 15 1008.6 - - - - - - - - -
26/06:30am 28.6 ESE 12 15 1008.3 - - - - - - - - -
26/06:15am 28.4 ESE 14 - 1007.7 - - - - - - - - -
26/06:00am 28.4 ESE 15 18 1007.7 - - - - - - - - -
26/05:30am 28.5 ESE 12 14 1007.6 - - - - - - - - -
26/05:15am 28.6 ESE 13 - 1007.3 - - - - - - - - -
26/05:00am 28.6 ESE 13 16 1007.6 - - - - - - - - -
26/04:30am 28.6 ESE 14 17 1007.4 - - - - - - - - -
26/04:15am 28.5 ESE 12 - 1007.2 - - - - - - - - -
26/04:00am 28.7 ESE 12 14 1007.5 - - - - - - - - -
26/03:30am 28.6 ESE 14 16 1007.6 - - - - - - - - -
26/03:15am 28.6 ESE 13 - 1007.4 - - - - - - - - -
26/03:00am 28.7 ESE 15 17 1007.8 - - - - - - - - -

Other Formats:

Comma delimited format used in spreadsheet applications
http://www.bom.gov.au/fwo/IDQ60701/IDQ60701.94289.axf

JavaScript Object Notation format (JSON) in row-major order
http://www.bom.gov.au/fwo/IDQ60701/IDQ60701.94289.json